Seattle, WA (98199)

5:42 AM PST on November 23, 2014 (GMT -0800)
Magnolia | Change Station
CLOSE
Current Station
Personal Weather Station
Location: Seattle, WA
Elevation: 315 ft
Nearby Weather Stations

Elev 315 ft 47.64 °N, 122.39 °W | Updated 6 seconds ago

Overcast
Overcast
47.0 °F
Feels Like 47 °F
N
1.0
Wind Variable Wind from ESE
Gusts 5.0 mph

Today
High -- | Low -- °F
--% Chance of Precip.
Yesterday
High -- | Low -- °F
Precip. -- in
7:26 AM 4:25 PM
New Moon, 1% visible
Pressure 30.11 in
Visibility 9.0 miles
Clouds Mostly Cloudy 3500 ft
Mostly Cloudy 5000 ft
Overcast 6500 ft
Windchill 47 °F
Dew Point 44 °F
Humidity 91%
Rainfall 0.00 in
Snow Depth Not available.
UV 0 out of 12
Pollen .10 out of 12
Air Quality Not available.
Flu Activity Not available.
METAR KBFI 231253Z 17017G24KT 9SM BKN035 BKN050 OVC065 10/06 A3011 RMK AO2 RAE42 SLP194 P0003 T01000056

More Conditions Fewer Conditions

Pressure 30.11 in
Visibility 9.0 miles
Clouds Mostly Cloudy 3500 ft
Mostly Cloudy 5000 ft
Overcast 6500 ft
Windchill 47 °F
Dew Point 44 °F
Humidity 91%
Rainfall 0.00 in
Snow Depth Not available.
UV 0 out of 12
Pollen .10 out of 12
Air Quality Not available.
Flu Activity Not available.
METAR KBFI 231253Z 17017G24KT 9SM BKN035 BKN050 OVC065 10/06 A3011 RMK AO2 RAE42 SLP194 P0003 T01000056

More Conditions Fewer Conditions

10-Day Weather Forecast

Almanac

Astronomy

Nov. 23, 2014 Rise Set
Actual Time
Civil Twilight
Nautical Twilight
Astronomical Twilight
Moon
Length of Visible Light
Length of Day
Tomorrow will be .
, % of the Moon is Illuminated

Today's Extremes

State Highs State Lows

Community

WunderPhotos

Upload Photos

1,773,062 photos uploaded!

WunderBlogs® & News

Nearby

Air Quality

  Air Quality AQ Index Pollutant
Not available.

Snow Depth

Station Depth Elevation

Earthquake Activity

City Distance Mag. Time & Date
Minimum magnitude displayed is 2.5.

Coastal Water Temperatures

Place Temperature

Nearby Weather Stations